createdAt,value
2017-05-03T00:00:51.801Z,92.80
2017-05-03T00:03:20.119Z,92.90
2017-05-03T00:05:48.393Z,92.90
2017-05-03T00:08:16.671Z,92.90
2017-05-03T00:10:44.984Z,93.30
2017-05-03T00:13:13.257Z,93.00
2017-05-03T00:15:41.538Z,93.50
2017-05-03T00:18:09.845Z,93.40
2017-05-03T00:20:38.117Z,93.40
2017-05-03T00:23:06.388Z,93.50
2017-05-03T00:25:34.696Z,93.40
2017-05-03T00:28:03.718Z,93.30
2017-05-03T00:30:31.986Z,93.20
2017-05-03T00:33:00.298Z,93.10
2017-05-03T00:35:28.577Z,92.80
2017-05-03T00:37:56.853Z,92.90
2017-05-03T00:40:25.176Z,92.60
2017-05-03T00:42:54.211Z,92.70
2017-05-03T00:45:22.483Z,92.30
2017-05-03T00:47:50.801Z,92.20
2017-05-03T00:50:19.077Z,92.30
2017-05-03T00:52:47.362Z,92.10
2017-05-03T00:55:15.677Z,92.20
2017-05-03T00:57:43.949Z,92.30
2017-05-03T01:00:12.228Z,92.30
2017-05-03T01:02:40.539Z,92.40
2017-05-03T01:05:08.817Z,92.50
2017-05-03T01:07:37.098Z,92.60
2017-05-03T01:10:05.413Z,92.50
2017-05-03T01:12:33.689Z,92.50
2017-05-03T01:15:01.961Z,92.40
2017-05-03T01:17:30.285Z,92.50
2017-05-03T01:19:58.561Z,92.80
2017-05-03T01:22:26.844Z,92.50
2017-05-03T01:24:55.173Z,92.80
2017-05-03T01:27:23.452Z,92.80
2017-05-03T01:29:51.736Z,92.90
2017-05-03T01:32:20.049Z,92.90
2017-05-03T01:34:49.061Z,92.90
2017-05-03T01:37:17.337Z,92.70
2017-05-03T01:39:45.665Z,92.60
2017-05-03T01:42:13.949Z,92.50
2017-05-03T01:44:42.232Z,92.40
2017-05-03T01:47:10.534Z,92.40
2017-05-03T01:49:39.557Z,92.40
2017-05-03T01:52:07.865Z,92.70
2017-05-03T01:54:36.183Z,92.60
2017-05-03T01:57:05.205Z,92.70
2017-05-03T01:59:33.486Z,92.60
2017-05-03T02:02:01.781Z,92.50
2017-05-03T02:04:30.070Z,92.20
2017-05-03T02:06:58.351Z,91.90
2017-05-03T02:09:26.677Z,91.40
2017-05-03T02:11:54.948Z,91.30
2017-05-03T02:14:23.970Z,91.20
2017-05-03T02:16:52.315Z,91.00
2017-05-03T02:19:21.341Z,91.00
2017-05-03T02:21:49.634Z,91.00
2017-05-03T02:24:17.936Z,90.80
2017-05-03T02:26:46.242Z,91.10
2017-05-03T02:29:15.253Z,91.10
2017-05-03T02:31:43.570Z,90.80
2017-05-03T02:34:11.846Z,90.80
2017-05-03T02:36:40.123Z,90.80
2017-05-03T02:39:08.474Z,90.80
2017-05-03T02:41:36.752Z,90.80
2017-05-03T02:44:05.027Z,90.80
2017-05-03T02:46:33.350Z,90.80
2017-05-03T02:49:01.645Z,90.80
2017-05-03T02:51:29.918Z,90.80
2017-05-03T02:53:58.794Z,90.80
2017-05-03T02:56:27.067Z,90.80
2017-05-03T02:58:55.355Z,90.80
2017-05-03T03:01:23.686Z,90.70
2017-05-03T03:03:51.962Z,90.80
2017-05-03T03:06:20.257Z,90.80
2017-05-03T03:08:48.568Z,90.40
2017-05-03T03:11:16.841Z,90.30
2017-05-03T03:13:45.118Z,90.40
2017-05-03T03:16:13.416Z,90.00
2017-05-03T03:18:41.701Z,90.10
2017-05-03T03:21:09.986Z,90.10
2017-05-03T03:23:39.062Z,90.20
2017-05-03T03:26:07.341Z,90.00
2017-05-03T03:28:35.618Z,90.10
2017-05-03T03:31:03.928Z,90.10
2017-05-03T03:33:32.949Z,90.10
2017-05-03T03:36:01.236Z,90.10
2017-05-03T03:38:29.553Z,90.10
2017-05-03T03:40:57.833Z,90.30
2017-05-03T03:43:26.113Z,90.40
2017-05-03T03:45:54.413Z,90.40
2017-05-03T03:48:23.438Z,90.10
2017-05-03T03:50:51.717Z,90.00
2017-05-03T03:53:20.041Z,89.30
2017-05-03T03:55:48.325Z,88.90
2017-05-03T03:58:17.349Z,88.50
2017-05-03T04:00:45.665Z,88.50
2017-05-03T04:03:13.945Z,87.30
2017-05-03T04:05:42.225Z,87.70
2017-05-03T04:08:10.533Z,87.30
2017-05-03T04:10:38.818Z,86.30
2017-05-03T04:13:07.839Z,86.40
2017-05-03T04:15:36.157Z,86.40
2017-05-03T04:18:04.431Z,85.40
2017-05-03T04:20:32.702Z,83.70
2017-05-03T04:23:01.016Z,83.80
2017-05-03T04:25:29.289Z,82.70
2017-05-03T04:27:57.560Z,81.40
2017-05-03T04:30:25.868Z,80.50
2017-05-03T04:32:54.890Z,78.70
2017-05-03T04:35:23.174Z,76.10
2017-05-03T04:37:51.481Z,76.20
2017-05-03T04:40:19.759Z,73.20
2017-05-03T04:42:48.033Z,71.90
2017-05-03T04:45:16.357Z,71.30
2017-05-03T04:47:45.377Z,71.20
2017-05-03T04:50:13.653Z,69.10
2017-05-03T04:52:41.957Z,68.30
2017-05-03T04:55:10.237Z,68.10
2017-05-03T04:57:38.522Z,66.60
2017-05-03T05:00:06.825Z,66.80
2017-05-03T05:02:35.113Z,64.80
2017-05-03T05:05:04.181Z,60.20
2017-05-03T05:07:32.510Z,57.80
2017-05-03T05:10:00.785Z,59.20
2017-05-03T05:12:29.065Z,59.40
2017-05-03T05:14:57.381Z,61.20
2017-05-03T05:17:25.661Z,61.20
2017-05-03T05:19:53.978Z,60.20
2017-05-03T05:22:23.024Z,54.40
2017-05-03T05:24:51.310Z,48.40
2017-05-03T05:27:19.585Z,43.30
2017-05-03T05:29:47.918Z,39.00
2017-05-03T05:32:16.943Z,37.20
2017-05-03T05:34:45.222Z,37.50
2017-05-03T05:37:13.525Z,36.30
2017-05-03T05:39:41.809Z,32.70
2017-05-03T05:42:10.091Z,31.70
2017-05-03T05:44:38.410Z,30.00
2017-05-03T05:47:05.915Z,30.00
2017-05-03T05:49:34.193Z,30.80
2017-05-03T05:52:02.513Z,32.10
2017-05-03T05:54:32.425Z,34.60
2017-05-03T05:57:00.729Z,38.70
2017-05-03T05:59:29.057Z,40.70
2017-05-03T06:01:57.339Z,41.70
2017-05-03T06:04:25.623Z,40.00
2017-05-03T06:06:53.945Z,40.20
2017-05-03T06:09:22.228Z,41.30
2017-05-03T06:11:50.512Z,41.10
2017-05-03T06:14:18.843Z,42.80
2017-05-03T06:16:47.874Z,45.90
2017-05-03T06:19:16.155Z,49.00
2017-05-03T06:21:44.458Z,50.00
2017-05-03T06:24:12.736Z,51.40
2017-05-03T06:26:41.025Z,52.20
2017-05-03T06:29:09.348Z,52.40
2017-05-03T06:31:38.364Z,53.60
2017-05-03T06:34:06.645Z,52.00
2017-05-03T06:36:34.950Z,50.60
2017-05-03T06:39:03.247Z,51.70
2017-05-03T06:41:32.284Z,52.10
2017-05-03T06:44:00.605Z,51.40
2017-05-03T06:46:28.885Z,50.20
2017-05-03T06:48:57.162Z,50.30
2017-05-03T06:51:25.477Z,50.80
2017-05-03T06:53:54.496Z,50.50
2017-05-03T06:56:22.784Z,49.80
2017-05-03T06:58:51.106Z,50.00
2017-05-03T07:01:19.385Z,49.90
2017-05-03T07:03:47.669Z,50.00
2017-05-03T07:06:15.997Z,48.90
2017-05-03T07:08:44.285Z,48.80
2017-05-03T07:11:12.566Z,48.50
2017-05-03T07:13:40.872Z,50.10
2017-05-03T07:16:09.154Z,48.40
2017-05-03T07:18:37.429Z,49.20
2017-05-03T07:21:05.762Z,49.30
2017-05-03T07:23:34.046Z,50.90
2017-05-03T07:26:02.324Z,50.00
2017-05-03T07:28:30.638Z,49.40
2017-05-03T07:30:58.953Z,50.50
2017-05-03T07:33:27.233Z,49.00
2017-05-03T07:35:55.973Z,48.60
2017-05-03T07:38:24.246Z,47.70
2017-05-03T07:40:52.529Z,46.70
2017-05-03T07:43:20.837Z,47.30
2017-05-03T07:45:49.879Z,45.10
2017-05-03T07:48:18.161Z,45.50
2017-05-03T07:50:46.482Z,46.80
2017-05-03T07:53:14.773Z,44.50
2017-05-03T07:55:43.801Z,44.60
2017-05-03T07:58:12.113Z,43.80
2017-05-03T08:00:40.394Z,45.30
2017-05-03T08:03:08.680Z,44.30
2017-05-03T08:05:37.013Z,45.00
2017-05-03T08:08:05.289Z,43.90
2017-05-03T08:10:33.578Z,43.00
2017-05-03T08:13:01.897Z,44.30
2017-05-03T08:15:30.190Z,44.10
2017-05-03T08:17:59.212Z,42.30
2017-05-03T08:20:27.528Z,40.80
2017-05-03T08:22:55.813Z,40.00
2017-05-03T08:25:24.107Z,40.00
2017-05-03T08:27:52.437Z,39.00
2017-05-03T08:30:20.721Z,41.00
2017-05-03T08:32:49.009Z,40.40
2017-05-03T08:35:17.341Z,40.00
2017-05-03T08:37:46.376Z,40.90
2017-05-03T08:40:14.661Z,40.40
2017-05-03T08:42:42.986Z,39.70
2017-05-03T08:45:12.016Z,38.80
2017-05-03T08:47:40.309Z,39.00
2017-05-03T08:50:08.640Z,39.20
2017-05-03T08:52:37.676Z,38.80
2017-05-03T08:55:05.964Z,37.60
2017-05-03T08:57:34.294Z,37.60
2017-05-03T09:00:03.355Z,39.00
2017-05-03T09:02:31.634Z,36.60
2017-05-03T09:04:59.967Z,36.40
2017-05-03T09:07:28.252Z,34.90
2017-05-03T09:09:56.533Z,33.30
2017-05-03T09:12:24.859Z,32.80
2017-05-03T09:14:53.149Z,31.60
2017-05-03T09:17:21.450Z,34.50
2017-05-03T09:19:50.509Z,33.70
2017-05-03T09:22:18.794Z,31.50
2017-05-03T09:24:47.077Z,35.40
2017-05-03T09:27:15.411Z,34.00
2017-05-03T09:29:43.702Z,33.60
2017-05-03T09:32:11.993Z,33.90
2017-05-03T09:34:40.308Z,33.50
2017-05-03T09:37:09.361Z,33.60
2017-05-03T09:39:37.644Z,31.80
2017-05-03T09:42:05.969Z,33.20
2017-05-03T09:44:34.260Z,32.70
2017-05-03T09:47:02.540Z,34.50
2017-05-03T09:49:30.865Z,34.80
2017-05-03T09:51:59.165Z,34.70
2017-05-03T09:54:28.190Z,32.80
2017-05-03T09:57:00.146Z,33.50
2017-05-03T09:59:28.429Z,34.30
2017-05-03T10:01:56.718Z,36.80
2017-05-03T10:04:25.044Z,34.60
2017-05-03T10:06:53.331Z,34.60
2017-05-03T10:09:21.612Z,34.20
2017-05-03T10:11:49.959Z,33.80
2017-05-03T10:14:18.238Z,35.40
2017-05-03T10:16:46.539Z,35.60
2017-05-03T10:19:14.860Z,34.70
2017-05-03T10:21:43.136Z,34.90
2017-05-03T10:24:11.417Z,36.20
2017-05-03T10:26:39.737Z,34.20
2017-05-03T10:29:08.013Z,35.40
2017-05-03T10:31:36.312Z,36.30
2017-05-03T10:34:04.639Z,36.60
2017-05-03T10:36:32.925Z,36.70
2017-05-03T10:39:01.217Z,36.00
2017-05-03T10:41:29.546Z,37.40
2017-05-03T10:43:57.836Z,36.30
2017-05-03T10:46:26.133Z,35.60
2017-05-03T10:48:54.447Z,37.20
2017-05-03T10:51:22.737Z,37.30
2017-05-03T10:53:51.033Z,37.40
2017-05-03T10:56:20.099Z,35.40
2017-05-03T10:58:48.385Z,37.00
2017-05-03T11:01:17.418Z,35.00
2017-05-03T11:03:45.726Z,35.30
2017-05-03T11:06:14.010Z,37.40
2017-05-03T11:08:42.304Z,37.70
2017-05-03T11:11:10.629Z,37.40
2017-05-03T11:13:38.940Z,37.70
2017-05-03T11:16:07.233Z,38.80
2017-05-03T11:18:35.563Z,37.00
2017-05-03T11:21:03.848Z,37.80
2017-05-03T11:23:32.138Z,36.40
2017-05-03T11:26:00.473Z,35.90
2017-05-03T11:28:29.509Z,38.60
2017-05-03T11:30:57.798Z,36.70
2017-05-03T11:33:26.130Z,37.20
2017-05-03T11:35:55.174Z,37.90
2017-05-03T11:38:23.472Z,38.80
2017-05-03T11:40:51.792Z,36.90
2017-05-03T11:43:20.091Z,36.70
2017-05-03T11:45:48.373Z,36.40
2017-05-03T11:48:16.744Z,37.70
2017-05-03T11:50:45.029Z,36.20
2017-05-03T11:53:13.362Z,36.80
2017-05-03T11:55:42.453Z,36.80
2017-05-03T11:58:10.750Z,37.60
2017-05-03T12:00:39.045Z,38.40
2017-05-03T12:03:07.372Z,38.90
2017-05-03T12:05:35.664Z,38.30
2017-05-03T12:08:03.956Z,36.30
2017-05-03T12:10:32.284Z,36.80
2017-05-03T12:13:00.569Z,38.50
2017-05-03T12:15:28.848Z,37.60
2017-05-03T12:17:57.169Z,36.80
2017-05-03T12:20:25.446Z,37.50
2017-05-03T12:22:53.726Z,36.90
2017-05-03T12:25:22.047Z,36.90
2017-05-03T12:27:50.337Z,35.50
2017-05-03T12:30:18.613Z,36.90
2017-05-03T12:32:46.936Z,34.90
2017-05-03T12:35:15.220Z,36.40
2017-05-03T12:37:43.500Z,37.30
2017-05-03T12:40:11.843Z,38.40
2017-05-03T12:42:40.127Z,37.30
2017-05-03T12:45:08.413Z,36.60
2017-05-03T12:47:36.746Z,35.80
2017-05-03T12:50:05.036Z,36.50
2017-05-03T12:52:33.329Z,35.80
2017-05-03T12:55:01.653Z,35.80
2017-05-03T12:57:30.682Z,37.70
2017-05-03T12:59:58.973Z,38.00
2017-05-03T13:02:27.292Z,37.30
2017-05-03T13:04:55.574Z,36.80
2017-05-03T13:07:23.852Z,35.40
2017-05-03T13:09:52.165Z,35.80
2017-05-03T13:12:20.445Z,35.80
2017-05-03T13:14:48.733Z,35.70
2017-05-03T13:17:17.091Z,35.90
2017-05-03T13:19:45.822Z,36.30
2017-05-03T13:22:14.128Z,35.30
2017-05-03T13:24:42.450Z,35.50
2017-05-03T13:27:10.734Z,36.90
2017-05-03T13:29:39.023Z,36.90
2017-05-03T13:32:07.347Z,34.80
2017-05-03T13:34:35.639Z,34.30
2017-05-03T13:37:04.657Z,35.60
2017-05-03T13:39:32.973Z,33.90
2017-05-03T13:42:01.261Z,34.50
2017-05-03T13:44:29.545Z,34.40
2017-05-03T13:46:57.864Z,35.10
2017-05-03T13:49:26.149Z,34.70
2017-05-03T13:51:54.430Z,34.10
2017-05-03T13:54:22.745Z,34.90
2017-05-03T13:56:51.036Z,35.20
2017-05-03T13:59:19.317Z,36.10
2017-05-03T14:01:47.640Z,35.60
2017-05-03T14:04:15.923Z,35.90
2017-05-03T14:06:44.205Z,36.70
2017-05-03T14:09:12.525Z,36.20
2017-05-03T14:11:40.812Z,35.30
2017-05-03T14:14:09.095Z,35.30
2017-05-03T14:16:37.422Z,36.40
2017-05-03T14:19:05.704Z,36.50
2017-05-03T14:21:33.993Z,35.80
2017-05-03T14:24:02.320Z,36.20
2017-05-03T14:26:31.353Z,35.90
2017-05-03T14:28:59.639Z,35.00
2017-05-03T14:31:27.965Z,36.20
2017-05-03T14:33:56.990Z,37.90
2017-05-03T14:36:25.268Z,38.10
2017-05-03T14:38:53.565Z,37.80
2017-05-03T14:41:21.856Z,38.20
2017-05-03T14:43:50.141Z,37.40
2017-05-03T14:46:18.465Z,37.30
2017-05-03T14:48:47.486Z,34.70
2017-05-03T14:51:15.762Z,34.50
2017-05-03T14:53:44.097Z,32.60
2017-05-03T14:56:13.122Z,32.90
2017-05-03T14:58:41.400Z,32.60
2017-05-03T15:01:09.721Z,34.70
2017-05-03T15:03:38.003Z,33.20
2017-05-03T15:06:06.300Z,35.30
2017-05-03T15:08:34.628Z,33.50
2017-05-03T15:11:02.917Z,33.60
2017-05-03T15:13:31.192Z,34.30
2017-05-03T15:15:59.520Z,33.70
2017-05-03T15:18:28.544Z,32.90
2017-05-03T15:20:56.841Z,32.50
2017-05-03T15:23:25.168Z,31.60
2017-05-03T15:25:54.220Z,31.80
2017-05-03T15:28:22.510Z,31.70
2017-05-03T15:30:50.840Z,32.60
2017-05-03T15:33:19.860Z,33.20
2017-05-03T15:35:48.141Z,32.00
2017-05-03T15:38:16.465Z,32.80
2017-05-03T15:40:44.745Z,34.50
2017-05-03T15:43:13.033Z,35.00
2017-05-03T15:45:41.352Z,36.30
2017-05-03T15:48:09.630Z,37.80
2017-05-03T15:50:37.962Z,38.80
2017-05-03T15:53:06.278Z,38.80
2017-05-03T15:55:34.615Z,40.30
2017-05-03T15:58:02.902Z,40.10
2017-05-03T16:00:31.225Z,41.10
2017-05-03T16:02:59.505Z,41.80
2017-05-03T16:05:27.789Z,43.00
2017-05-03T16:07:56.108Z,42.40
2017-05-03T16:10:24.394Z,42.20
2017-05-03T16:12:52.680Z,42.30
2017-05-03T16:15:21.724Z,42.70
2017-05-03T16:17:50.044Z,41.40
2017-05-03T16:20:19.077Z,42.70
2017-05-03T16:22:47.409Z,41.80
2017-05-03T16:25:15.688Z,41.50
2017-05-03T16:27:43.972Z,41.50
2017-05-03T16:30:12.293Z,41.50
2017-05-03T16:32:40.581Z,42.50
2017-05-03T16:35:09.388Z,41.30
2017-05-03T16:37:37.708Z,42.30
2017-05-03T16:40:06.019Z,42.40
2017-05-03T16:42:34.301Z,41.50
2017-05-03T16:45:02.627Z,41.70
2017-05-03T16:47:30.909Z,41.90
2017-05-03T16:49:59.204Z,43.30
2017-05-03T16:52:28.265Z,43.00
2017-05-03T16:54:56.544Z,44.90
2017-05-03T16:57:24.821Z,45.60
2017-05-03T16:59:53.136Z,44.70
2017-05-03T17:02:22.165Z,44.70
2017-05-03T17:04:50.445Z,45.30
2017-05-03T17:07:18.773Z,47.00
2017-05-03T17:09:47.081Z,46.60
2017-05-03T17:12:15.361Z,46.60
2017-05-03T17:14:43.665Z,48.00
2017-05-03T17:17:11.952Z,48.50
2017-05-03T17:19:40.250Z,48.70
2017-05-03T17:22:08.573Z,48.60
2017-05-03T17:24:36.854Z,50.60
2017-05-03T17:27:05.136Z,51.40
2017-05-03T17:29:33.454Z,52.00
2017-05-03T17:32:01.746Z,52.00
2017-05-03T17:34:30.020Z,52.40
2017-05-03T17:36:58.343Z,52.50
2017-05-03T17:39:26.621Z,52.40
2017-05-03T17:41:54.902Z,52.40
2017-05-03T17:44:23.217Z,53.60
2017-05-03T17:46:51.497Z,52.90
2017-05-03T17:49:19.777Z,54.20
2017-05-03T17:51:48.092Z,54.00
2017-05-03T17:54:17.113Z,54.90
2017-05-03T17:56:45.393Z,55.10
2017-05-03T17:59:13.709Z,55.20
2017-05-03T18:01:41.993Z,55.40
2017-05-03T18:04:10.289Z,56.20
2017-05-03T18:06:38.615Z,56.00
2017-05-03T18:09:06.893Z,56.30
2017-05-03T18:11:35.169Z,56.20
2017-05-03T18:14:03.486Z,56.50
2017-05-03T18:16:31.773Z,56.60
2017-05-03T18:19:00.054Z,56.90
2017-05-03T18:21:28.373Z,57.80
2017-05-03T18:23:56.673Z,58.50
2017-05-03T18:26:25.915Z,59.10
2017-05-03T18:28:54.253Z,60.30
2017-05-03T18:31:22.530Z,59.60
2017-05-03T18:33:50.808Z,60.30
2017-05-03T18:36:19.133Z,60.20
2017-05-03T18:38:47.433Z,61.10
2017-05-03T18:41:15.725Z,64.00
2017-05-03T18:43:44.044Z,62.50
2017-05-03T18:46:12.324Z,64.30
2017-05-03T18:48:40.604Z,64.70
2017-05-03T18:51:08.959Z,65.00
2017-05-03T18:53:37.238Z,66.00
2017-05-03T18:56:05.521Z,66.20
2017-05-03T18:58:33.833Z,67.00
2017-05-03T19:01:02.125Z,68.30
2017-05-03T19:03:31.144Z,68.80
2017-05-03T19:05:59.470Z,69.90
2017-05-03T19:08:27.748Z,70.60
2017-05-03T19:10:56.029Z,71.10
2017-05-03T19:13:24.352Z,71.40
2017-05-03T19:15:52.637Z,72.80
2017-05-03T19:18:20.925Z,72.50
2017-05-03T19:20:49.247Z,72.10
2017-05-03T19:23:17.533Z,72.20
2017-05-03T19:25:45.814Z,72.10
2017-05-03T19:28:14.137Z,72.00
2017-05-03T19:30:42.420Z,72.10
2017-05-03T19:33:10.706Z,71.10
2017-05-03T19:35:39.044Z,71.30
2017-05-03T19:38:08.068Z,71.30
2017-05-03T19:40:36.340Z,71.30
2017-05-03T19:43:04.661Z,72.40
2017-05-03T19:45:32.941Z,72.30
2017-05-03T19:48:01.273Z,72.50
2017-05-03T19:50:29.585Z,74.50
2017-05-03T19:52:57.865Z,75.10
2017-05-03T19:55:26.145Z,75.40
2017-05-03T19:57:54.451Z,76.10
2017-05-03T20:00:22.744Z,76.70
2017-05-03T20:02:51.034Z,77.20
2017-05-03T20:05:19.357Z,77.50
2017-05-03T20:07:48.330Z,77.90
2017-05-03T20:10:16.609Z,77.90
2017-05-03T20:12:44.923Z,78.50
2017-05-03T20:15:13.198Z,78.70
2017-05-03T20:17:41.490Z,79.70
2017-05-03T20:20:09.806Z,79.50
2017-05-03T20:22:38.101Z,79.40
2017-05-03T20:25:06.385Z,79.60
2017-05-03T20:27:34.701Z,80.00
2017-05-03T20:30:02.993Z,80.70
2017-05-03T20:32:32.017Z,81.30
2017-05-03T20:35:00.331Z,81.70
2017-05-03T20:37:28.610Z,81.70
2017-05-03T20:39:56.915Z,82.40
2017-05-03T20:42:25.229Z,83.30
2017-05-03T20:44:53.515Z,84.50
2017-05-03T20:47:21.807Z,85.80
2017-05-03T20:49:50.128Z,87.00
2017-05-03T20:52:18.405Z,88.10
2017-05-03T20:54:46.688Z,88.50
2017-05-03T20:57:15.000Z,89.30
2017-05-03T20:59:43.277Z,88.30
2017-05-03T21:02:11.578Z,87.70
2017-05-03T21:04:39.909Z,86.40
2017-05-03T21:07:08.929Z,85.90
2017-05-03T21:09:37.214Z,86.60
2017-05-03T21:12:05.549Z,87.30
2017-05-03T21:14:33.825Z,88.20
2017-05-03T21:17:02.099Z,88.50
2017-05-03T21:19:30.416Z,89.20
2017-05-03T21:21:58.692Z,88.90
2017-05-03T21:24:26.973Z,89.50
2017-05-03T21:26:55.414Z,90.00
2017-05-03T21:29:23.874Z,90.30
2017-05-03T21:31:52.181Z,90.50
2017-05-03T21:34:20.489Z,90.80
2017-05-03T21:36:48.759Z,90.90
2017-05-03T21:39:18.514Z,91.00
2017-05-03T21:41:46.833Z,91.40
2017-05-03T21:44:17.634Z,91.30
2017-05-03T21:46:45.977Z,90.90
2017-05-03T21:49:14.258Z,90.60
2017-05-03T21:51:42.532Z,90.90
2017-05-03T21:54:11.022Z,90.90
2017-05-03T21:56:40.644Z,91.10
2017-05-03T21:59:09.009Z,91.00
2017-05-03T22:01:37.337Z,91.00
2017-05-03T22:04:05.682Z,90.80
2017-05-03T22:06:33.957Z,90.70
2017-05-03T22:09:02.268Z,90.70
2017-05-03T22:11:30.553Z,90.70
2017-05-03T22:13:58.825Z,91.00
2017-05-03T22:16:27.137Z,91.20
2017-05-03T22:18:56.158Z,91.30
2017-05-03T22:21:24.433Z,91.50
2017-05-03T22:23:52.772Z,91.40
2017-05-03T22:26:21.087Z,91.60
2017-05-03T22:28:49.367Z,91.70
2017-05-03T22:31:17.690Z,91.90
2017-05-03T22:33:45.972Z,92.20
2017-05-03T22:36:14.252Z,92.50
2017-05-03T22:38:42.558Z,92.60
2017-05-03T22:41:11.633Z,92.80
2017-05-03T22:43:39.913Z,93.10
2017-05-03T22:46:08.229Z,93.30
2017-05-03T22:48:36.505Z,93.40
2017-05-03T22:51:04.781Z,93.40
2017-05-03T22:53:33.076Z,93.30
2017-05-03T22:56:01.374Z,93.20
2017-05-03T22:58:29.651Z,93.20
2017-05-03T23:00:57.977Z,93.20
2017-05-03T23:03:26.994Z,93.00
2017-05-03T23:05:55.274Z,92.90
2017-05-03T23:08:23.573Z,92.90
2017-05-03T23:10:51.848Z,93.00
2017-05-03T23:13:20.126Z,93.00
2017-05-03T23:15:48.429Z,93.00
2017-05-03T23:18:16.701Z,92.90
2017-05-03T23:20:44.977Z,93.00
2017-05-03T23:23:13.299Z,93.10
2017-05-03T23:25:41.582Z,93.30
2017-05-03T23:28:09.861Z,93.30
2017-05-03T23:30:38.182Z,93.50
2017-05-03T23:33:06.460Z,93.40
2017-05-03T23:35:34.740Z,93.50
2017-05-03T23:38:03.033Z,93.50
2017-05-03T23:40:31.345Z,93.60
2017-05-03T23:42:59.618Z,93.80
2017-05-03T23:45:28.690Z,93.90
2017-05-03T23:47:56.981Z,93.90
2017-05-03T23:50:26.001Z,94.00
2017-05-03T23:52:54.302Z,94.40
2017-05-03T23:55:22.581Z,94.60
2017-05-03T23:57:50.848Z,94.30
